createdAt,value
2022-11-01T00:00:05.505Z,96221
2022-11-01T00:01:05.499Z,96221
2022-11-01T00:02:05.533Z,96214
2022-11-01T00:03:05.508Z,96217
2022-11-01T00:04:05.465Z,96217
2022-11-01T00:08:05.536Z,96211
2022-11-01T00:09:05.487Z,96211
2022-11-01T00:11:05.506Z,96208
2022-11-01T00:13:05.527Z,96208
2022-11-01T00:15:05.520Z,96207
2022-11-01T00:18:05.551Z,96206
2022-11-01T00:19:05.519Z,96204
2022-11-01T00:25:05.520Z,96207
2022-11-01T00:26:05.501Z,96205
2022-11-01T00:29:05.569Z,96207
2022-11-01T00:32:05.529Z,96209
2022-11-01T00:33:05.579Z,96209
2022-11-01T00:34:05.545Z,96209
2022-11-01T00:35:05.572Z,96209
2022-11-01T00:36:05.643Z,96209
2022-11-01T00:37:05.547Z,96209
2022-11-01T00:39:05.578Z,96200
2022-11-01T00:40:05.566Z,96200
2022-11-01T00:41:05.621Z,96204
2022-11-01T00:42:05.586Z,96205
2022-11-01T00:43:05.636Z,96206
2022-11-01T00:44:05.579Z,96206
2022-11-01T00:45:05.580Z,96206
2022-11-01T00:46:05.603Z,96209
2022-11-01T00:51:05.665Z,96220
2022-11-01T00:52:05.572Z,96220
2022-11-01T00:53:07.650Z,96222
2022-11-01T00:54:05.641Z,96222
2022-11-01T00:55:05.610Z,96228
2022-11-01T00:57:05.624Z,96233
2022-11-01T00:58:05.628Z,96232
2022-11-01T00:59:05.648Z,96233
2022-11-01T01:00:05.597Z,96231
2022-11-01T01:01:05.779Z,96227
2022-11-01T01:02:05.843Z,96227
2022-11-01T01:03:05.646Z,96229
2022-11-01T01:05:05.637Z,96234
2022-11-01T01:10:05.681Z,96231
2022-11-01T01:11:05.648Z,96232
2022-11-01T01:12:05.680Z,96232
2022-11-01T01:13:05.803Z,96229
2022-11-01T01:14:05.691Z,96230
2022-11-01T01:15:05.661Z,96231
2022-11-01T01:16:05.680Z,96231
2022-11-01T01:17:05.675Z,96233
2022-11-01T01:18:05.663Z,96232
2022-11-01T01:19:05.720Z,96232
2022-11-01T01:20:05.664Z,96232
2022-11-01T01:21:05.671Z,96232
2022-11-01T01:22:05.787Z,96232
2022-11-01T01:24:05.710Z,96227
2022-11-01T01:25:05.698Z,96228
2022-11-01T01:26:05.664Z,96228
2022-11-01T01:27:05.803Z,96230
2022-11-01T01:28:05.784Z,96230
2022-11-01T01:29:05.687Z,96229
2022-11-01T01:31:05.687Z,96229
2022-11-01T01:32:05.746Z,96222
2022-11-01T01:33:05.770Z,96222
2022-11-01T01:34:05.713Z,96218
2022-11-01T01:35:05.699Z,96218
2022-11-01T01:36:05.693Z,96218
2022-11-01T01:37:05.737Z,96214
2022-11-01T01:38:05.803Z,96214
2022-11-01T01:40:05.773Z,96210
2022-11-01T01:41:05.693Z,96210
2022-11-01T01:42:05.730Z,96219
2022-11-01T01:43:05.729Z,96219
2022-11-01T01:44:05.711Z,96216
2022-11-01T01:45:05.785Z,96211
2022-11-01T01:46:05.742Z,96211
2022-11-01T01:47:05.752Z,96219
2022-11-01T01:48:05.738Z,96217
2022-11-01T01:49:05.733Z,96217
2022-11-01T01:50:05.756Z,96214
2022-11-01T01:51:05.733Z,96214
2022-11-01T01:52:05.794Z,96209
2022-11-01T01:53:05.953Z,96209
2022-11-01T01:54:05.769Z,96207
2022-11-01T01:55:05.792Z,96207
2022-11-01T01:56:05.765Z,96216
2022-11-01T01:57:05.763Z,96216
2022-11-01T01:58:05.786Z,96212
2022-11-01T01:59:05.755Z,96206
2022-11-01T02:00:05.797Z,96206
2022-11-01T02:01:05.872Z,96206
2022-11-01T02:02:05.815Z,96211
2022-11-01T02:03:05.846Z,96201
2022-11-01T02:04:05.758Z,96201
2022-11-01T02:05:05.803Z,96204
2022-11-01T02:06:05.795Z,96204
2022-11-01T02:07:08.114Z,96212
2022-11-01T02:10:05.874Z,96211
2022-11-01T02:11:05.813Z,96214
2022-11-01T02:12:05.779Z,96214
2022-11-01T02:13:05.825Z,96221
2022-11-01T02:14:05.811Z,96221
2022-11-01T02:18:05.852Z,96223
2022-11-01T02:19:05.847Z,96223
2022-11-01T02:20:05.800Z,96227
2022-11-01T02:23:05.855Z,96227
2022-11-01T02:25:05.847Z,96231
2022-11-01T02:26:05.860Z,96231
2022-11-01T02:27:05.822Z,96231
2022-11-01T02:28:05.857Z,96237
2022-11-01T02:29:06.101Z,96237
2022-11-01T02:30:05.827Z,96242
2022-11-01T02:35:05.856Z,96245
2022-11-01T02:36:05.888Z,96250
2022-11-01T02:37:05.889Z,96255
2022-11-01T02:38:05.887Z,96252
2022-11-01T02:39:05.964Z,96257
2022-11-01T02:40:05.871Z,96261
2022-11-01T02:41:05.895Z,96261
2022-11-01T02:43:05.869Z,96261
2022-11-01T02:44:08.307Z,96261
2022-11-01T02:45:05.884Z,96261
2022-11-01T02:46:05.915Z,96258
2022-11-01T02:47:05.901Z,96259
2022-11-01T02:49:05.952Z,96257
2022-11-01T02:51:05.888Z,96261
2022-11-01T02:52:05.897Z,96260
2022-11-01T02:54:05.942Z,96255
2022-11-01T02:55:05.926Z,96255
2022-11-01T02:56:05.903Z,96258
2022-11-01T02:57:05.940Z,96263
2022-11-01T02:58:06.037Z,96263
2022-11-01T02:59:05.948Z,96253
2022-11-01T03:00:05.908Z,96253
2022-11-01T03:01:06.093Z,96254
2022-11-01T03:02:06.016Z,96256
2022-11-01T03:03:05.938Z,96256
2022-11-01T03:04:05.961Z,96264
2022-11-01T03:05:05.910Z,96264
2022-11-01T03:06:05.935Z,96269
2022-11-01T03:07:05.963Z,96269
2022-11-01T03:08:05.948Z,96273
2022-11-01T03:09:05.923Z,96273
2022-11-01T03:11:05.918Z,96273
2022-11-01T03:12:06.015Z,96284
2022-11-01T03:13:06.034Z,96288
2022-11-01T03:14:05.960Z,96301
2022-11-01T03:15:05.987Z,96301
2022-11-01T03:16:05.942Z,96301
2022-11-01T03:17:06.004Z,96307
2022-11-01T03:19:05.989Z,96309
2022-11-01T03:20:06.000Z,96310
2022-11-01T03:21:08.550Z,96311
2022-11-01T03:22:05.999Z,96316
2022-11-01T03:23:05.975Z,96316
2022-11-01T03:24:05.980Z,96317
2022-11-01T03:26:05.998Z,96320
2022-11-01T03:27:05.997Z,96323
2022-11-01T03:29:05.971Z,96316
2022-11-01T03:33:06.117Z,96315
2022-11-01T03:34:05.988Z,96315
2022-11-01T03:35:06.062Z,96325
2022-11-01T03:37:06.026Z,96327
2022-11-01T03:38:06.022Z,96325
2022-11-01T03:39:05.997Z,96334
2022-11-01T03:40:06.050Z,96331
2022-11-01T03:41:06.009Z,96331
2022-11-01T03:42:06.013Z,96331
2022-11-01T03:43:06.083Z,96342
2022-11-01T03:44:06.012Z,96342
2022-11-01T03:46:06.029Z,96336
2022-11-01T03:47:06.009Z,96328
2022-11-01T03:48:06.083Z,96338
2022-11-01T03:49:06.064Z,96338
2022-11-01T03:50:06.087Z,96333
2022-11-01T03:51:06.055Z,96334
2022-11-01T03:52:06.060Z,96334
2022-11-01T03:53:06.090Z,96334
2022-11-01T03:54:06.045Z,96334
2022-11-01T03:55:06.124Z,96334
2022-11-01T03:56:06.065Z,96338
2022-11-01T03:58:08.764Z,96327
2022-11-01T03:59:06.058Z,96327
2022-11-01T04:00:06.055Z,96327
2022-11-01T04:01:06.185Z,96335
2022-11-01T04:02:06.273Z,96335
2022-11-01T04:03:06.458Z,96337
2022-11-01T04:04:06.057Z,96337
2022-11-01T04:06:06.139Z,96340
2022-11-01T04:07:06.062Z,96340
2022-11-01T04:08:06.081Z,96335
2022-11-01T04:09:12.745Z,96343
2022-11-01T04:10:06.115Z,96348
2022-11-01T04:11:06.092Z,96348
2022-11-01T04:12:06.125Z,96350
2022-11-01T04:13:06.358Z,96350
2022-11-01T04:14:06.138Z,96348
2022-11-01T04:15:06.129Z,96349
2022-11-01T04:16:06.094Z,96349
2022-11-01T04:17:06.186Z,96354
2022-11-01T04:19:06.095Z,96358
2022-11-01T04:20:06.135Z,96360
2022-11-01T04:21:06.098Z,96358
2022-11-01T04:22:06.124Z,96364
2022-11-01T04:23:06.331Z,96367
2022-11-01T04:25:06.167Z,96374
2022-11-01T04:27:06.155Z,96374
2022-11-01T04:28:06.111Z,96376
2022-11-01T04:33:06.141Z,96383
2022-11-01T04:34:06.150Z,96383
2022-11-01T04:35:08.977Z,96391
2022-11-01T04:36:06.184Z,96391
2022-11-01T04:37:06.220Z,96391
2022-11-01T04:38:06.489Z,96391
2022-11-01T04:39:06.166Z,96392
2022-11-01T04:40:06.212Z,96393
2022-11-01T04:41:06.166Z,96390
2022-11-01T04:42:06.204Z,96390
2022-11-01T04:43:06.192Z,96389
2022-11-01T04:44:06.180Z,96390
2022-11-01T04:45:06.220Z,96389
2022-11-01T04:46:06.175Z,96389
2022-11-01T04:47:06.170Z,96391
2022-11-01T04:48:06.170Z,96388
2022-11-01T04:49:06.208Z,96385
2022-11-01T04:50:06.219Z,96394
2022-11-01T04:51:06.202Z,96389
2022-11-01T04:52:06.225Z,96389
2022-11-01T04:53:06.362Z,96386
2022-11-01T04:54:06.188Z,96388
2022-11-01T04:55:06.241Z,96387
2022-11-01T04:56:06.189Z,96387
2022-11-01T04:57:06.225Z,96388
2022-11-01T04:58:06.191Z,96390
2022-11-01T04:59:06.221Z,96389
2022-11-01T05:00:06.228Z,96385
2022-11-01T05:01:07.440Z,96385
2022-11-01T05:02:07.464Z,96371
2022-11-01T05:04:06.217Z,96377
2022-11-01T05:05:06.228Z,96377
2022-11-01T05:06:06.248Z,96381
2022-11-01T05:07:06.250Z,96388
2022-11-01T05:08:06.279Z,96387
2022-11-01T05:09:06.229Z,96387
2022-11-01T05:10:06.237Z,96400
2022-11-01T05:11:06.254Z,96402
2022-11-01T05:12:09.246Z,96397
2022-11-01T05:13:06.583Z,96406
2022-11-01T05:15:06.251Z,96407
2022-11-01T05:16:20.483Z,96399
2022-11-01T05:17:06.235Z,96399
2022-11-01T05:18:06.263Z,96409
2022-11-01T05:19:06.258Z,96412
2022-11-01T05:20:06.268Z,96401
2022-11-01T05:21:06.296Z,96412
2022-11-01T05:22:06.272Z,96412
2022-11-01T05:23:06.374Z,96411
2022-11-01T05:24:06.281Z,96411
2022-11-01T05:26:06.324Z,96416
2022-11-01T05:29:13.395Z,96415
2022-11-01T05:30:06.275Z,96424
2022-11-01T05:31:06.326Z,96428
2022-11-01T05:32:06.273Z,96428
2022-11-01T05:33:06.293Z,96430
2022-11-01T05:34:06.347Z,96426
2022-11-01T05:35:06.349Z,96429
2022-11-01T05:36:06.303Z,96438
2022-11-01T05:37:06.314Z,96438
2022-11-01T05:38:06.294Z,96444
2022-11-01T05:39:06.348Z,96446
2022-11-01T05:40:06.318Z,96446
2022-11-01T05:41:06.364Z,96447
2022-11-01T05:42:06.315Z,96454
2022-11-01T05:43:06.336Z,96454
2022-11-01T05:44:06.352Z,96455
2022-11-01T05:46:06.352Z,96456
2022-11-01T05:47:06.348Z,96459
2022-11-01T05:48:06.315Z,96462
2022-11-01T05:49:09.470Z,96465
2022-11-01T05:50:06.315Z,96465
2022-11-01T05:51:06.332Z,96458
2022-11-01T05:52:06.380Z,96455
2022-11-01T05:53:06.341Z,96455
2022-11-01T05:54:06.387Z,96458
2022-11-01T05:55:06.347Z,96453
2022-11-01T05:56:06.370Z,96461
2022-11-01T05:57:06.464Z,96461
2022-11-01T05:58:06.350Z,96465
2022-11-01T05:59:06.401Z,96465
2022-11-01T06:00:06.353Z,96463
2022-11-01T06:01:06.483Z,96464
2022-11-01T06:02:06.629Z,96469
2022-11-01T06:03:06.907Z,96469
2022-11-01T06:04:06.436Z,96467
2022-11-01T06:05:06.394Z,96472
2022-11-01T06:06:06.381Z,96472
2022-11-01T06:07:06.435Z,96471
2022-11-01T06:08:06.421Z,96471
2022-11-01T06:09:06.434Z,96471
2022-11-01T06:10:06.381Z,96467
2022-11-01T06:11:06.401Z,96470
2022-11-01T06:14:06.426Z,96470
2022-11-01T06:15:06.384Z,96474
2022-11-01T06:16:06.419Z,96474
2022-11-01T06:17:06.430Z,96475
2022-11-01T06:18:06.680Z,96475
2022-11-01T06:19:06.422Z,96482
2022-11-01T06:20:06.485Z,96480
2022-11-01T06:21:06.394Z,96480
2022-11-01T06:22:06.447Z,96479
2022-11-01T06:23:06.447Z,96484
2022-11-01T06:24:06.444Z,96486
2022-11-01T06:25:06.464Z,96487
2022-11-01T06:26:09.759Z,96489
2022-11-01T06:27:11.443Z,96494
2022-11-01T06:28:06.457Z,96490
2022-11-01T06:29:06.436Z,96490
2022-11-01T06:30:06.492Z,96491
2022-11-01T06:32:06.486Z,96500
2022-11-01T06:33:06.435Z,96500
2022-11-01T06:35:06.465Z,96504
2022-11-01T06:36:06.461Z,96504
2022-11-01T06:37:06.530Z,96506
2022-11-01T06:38:06.456Z,96506
2022-11-01T06:39:06.470Z,96511
2022-11-01T06:40:06.503Z,96520
2022-11-01T06:41:06.508Z,96525
2022-11-01T06:42:06.471Z,96525
2022-11-01T06:43:06.628Z,96525
2022-11-01T06:44:06.451Z,96529
2022-11-01T06:45:06.515Z,96536
2022-11-01T06:46:06.533Z,96536
2022-11-01T06:47:06.482Z,96536
2022-11-01T06:48:06.682Z,96538
2022-11-01T06:49:06.480Z,96538
2022-11-01T06:50:43.334Z,96544
2022-11-01T06:51:34.951Z,96547
2022-11-01T06:52:06.538Z,96545
2022-11-01T06:53:06.515Z,96546
2022-11-01T06:54:06.610Z,96549
2022-11-01T06:55:06.509Z,96548
2022-11-01T06:56:06.509Z,96548
2022-11-01T06:57:06.538Z,96538
2022-11-01T06:58:06.826Z,96543
2022-11-01T06:59:06.536Z,96543
2022-11-01T07:00:06.547Z,96543
2022-11-01T07:01:06.719Z,96538
2022-11-01T07:02:09.927Z,96541
2022-11-01T07:03:09.950Z,96542
2022-11-01T07:04:06.581Z,96541
2022-11-01T07:05:06.544Z,96541
2022-11-01T07:06:06.575Z,96543
2022-11-01T07:07:06.590Z,96546
2022-11-01T07:08:06.771Z,96546
2022-11-01T07:09:06.538Z,96551
2022-11-01T07:11:06.565Z,96551
2022-11-01T07:12:06.595Z,96545
2022-11-01T07:13:06.553Z,96545
2022-11-01T07:14:06.565Z,96541
2022-11-01T07:15:06.617Z,96542
2022-11-01T07:16:06.575Z,96542
2022-11-01T07:17:06.627Z,96543
2022-11-01T07:18:06.792Z,96543
2022-11-01T07:19:06.567Z,96538
2022-11-01T07:20:06.610Z,96540
2022-11-01T07:21:06.567Z,96538
2022-11-01T07:23:06.890Z,96540
2022-11-01T07:24:06.570Z,96540
2022-11-01T07:25:06.617Z,96540
2022-11-01T07:26:06.594Z,96542
2022-11-01T07:27:06.629Z,96541
2022-11-01T07:28:06.594Z,96542
2022-11-01T07:29:06.644Z,96547
2022-11-01T07:30:06.620Z,96550
2022-11-01T07:31:06.597Z,96550
2022-11-01T07:33:06.845Z,96552
2022-11-01T07:34:06.615Z,96552
2022-11-01T07:35:06.736Z,96551
2022-11-01T07:36:06.606Z,96551
2022-11-01T07:37:06.595Z,96553
2022-11-01T07:38:11.552Z,96557
2022-11-01T07:39:06.620Z,96557
2022-11-01T07:40:10.259Z,96565
2022-11-01T07:41:06.617Z,96567
2022-11-01T07:42:06.625Z,96567
2022-11-01T07:43:06.673Z,96563
2022-11-01T07:44:06.639Z,96560
2022-11-01T07:45:11.915Z,96557
2022-11-01T07:46:06.718Z,96558
2022-11-01T07:47:06.611Z,96558
2022-11-01T07:48:06.655Z,96553
2022-11-01T07:49:06.624Z,96553
2022-11-01T07:51:06.657Z,96554
2022-11-01T07:52:06.685Z,96554
2022-11-01T07:53:06.694Z,96556
2022-11-01T07:54:06.684Z,96556
2022-11-01T07:55:06.716Z,96555
2022-11-01T07:56:06.714Z,96560
2022-11-01T07:57:06.657Z,96559
2022-11-01T07:58:06.863Z,96554
2022-11-01T07:59:06.696Z,96553
2022-11-01T08:00:06.700Z,96553
2022-11-01T08:01:06.769Z,96555
2022-11-01T08:02:08.109Z,96555
2022-11-01T08:03:06.744Z,96550
2022-11-01T08:04:06.725Z,96552
2022-11-01T08:05:06.803Z,96547
2022-11-01T08:06:06.673Z,96544
2022-11-01T08:07:06.698Z,96540
2022-11-01T08:08:06.924Z,96543
2022-11-01T08:09:06.698Z,96543
2022-11-01T08:10:06.724Z,96543
2022-11-01T08:11:06.684Z,96543
2022-11-01T08:12:06.704Z,96544
2022-11-01T08:13:06.751Z,96546
2022-11-01T08:14:11.201Z,96546
2022-11-01T08:15:06.760Z,96546
2022-11-01T08:16:06.735Z,96545
2022-11-01T08:17:10.416Z,96547
2022-11-01T08:18:07.039Z,96543
2022-11-01T08:19:06.741Z,96545
2022-11-01T08:20:06.751Z,96545
2022-11-01T08:21:06.804Z,96549
2022-11-01T08:22:06.741Z,96545
2022-11-01T08:23:07.185Z,96543
2022-11-01T08:24:06.838Z,96547
2022-11-01T08:25:06.727Z,96544
2022-11-01T08:26:06.772Z,96547
2022-11-01T08:27:06.813Z,96547
2022-11-01T08:28:06.775Z,96553
2022-11-01T08:29:06.747Z,96555
2022-11-01T08:30:06.747Z,96554
2022-11-01T08:31:06.783Z,96557
2022-11-01T08:32:06.771Z,96562
2022-11-01T08:33:07.119Z,96560
2022-11-01T08:34:06.774Z,96560
2022-11-01T08:35:06.734Z,96562
2022-11-01T08:36:06.802Z,96563
2022-11-01T08:37:06.754Z,96563
2022-11-01T08:38:06.782Z,96558
2022-11-01T08:39:06.836Z,96562
2022-11-01T08:40:06.781Z,96557
2022-11-01T08:41:06.808Z,96561
2022-11-01T08:42:06.771Z,96558
2022-11-01T08:43:06.948Z,96558
2022-11-01T08:44:06.812Z,96554
2022-11-01T08:45:07.017Z,96554
2022-11-01T08:46:06.840Z,96565
2022-11-01T08:47:06.782Z,96565
2022-11-01T08:48:06.782Z,96569
2022-11-01T08:49:06.830Z,96564
2022-11-01T08:50:10.157Z,96564
2022-11-01T08:51:07.365Z,96563
2022-11-01T08:52:06.798Z,96564
2022-11-01T08:53:06.821Z,96567
2022-11-01T08:54:10.653Z,96568
2022-11-01T08:55:06.814Z,96568
2022-11-01T08:56:06.796Z,96568
2022-11-01T08:57:06.832Z,96570
2022-11-01T08:58:06.939Z,96566
2022-11-01T08:59:06.858Z,96569
2022-11-01T09:00:06.827Z,96573
2022-11-01T09:01:06.916Z,96574
2022-11-01T09:02:06.989Z,96575
2022-11-01T09:03:06.828Z,96575
2022-11-01T09:04:06.886Z,96571
2022-11-01T09:05:06.837Z,96574
2022-11-01T09:06:06.822Z,96574
2022-11-01T09:07:06.863Z,96574
2022-11-01T09:08:07.323Z,96573
2022-11-01T09:09:06.895Z,96569
2022-11-01T09:10:06.838Z,96572
2022-11-01T09:11:06.847Z,96572
2022-11-01T09:12:10.886Z,96571
2022-11-01T09:13:07.298Z,96572
2022-11-01T09:14:06.933Z,96571
2022-11-01T09:15:06.876Z,96574
2022-11-01T09:16:08.232Z,96571
2022-11-01T09:17:06.880Z,96569
2022-11-01T09:18:06.857Z,96576
2022-11-01T09:19:06.903Z,96571
2022-11-01T09:20:06.887Z,96571
2022-11-01T09:21:06.865Z,96576
2022-11-01T09:22:06.895Z,96580
2022-11-01T09:23:06.877Z,96580
2022-11-01T09:24:06.923Z,96580
2022-11-01T09:25:06.945Z,96580
2022-11-01T09:27:06.934Z,96586
2022-11-01T09:28:06.898Z,96587
2022-11-01T09:29:06.930Z,96586
2022-11-01T09:30:06.918Z,96583
2022-11-01T09:31:20.572Z,96581
2022-11-01T09:32:06.958Z,96589
2022-11-01T09:33:06.908Z,96585
2022-11-01T09:34:06.936Z,96585
2022-11-01T09:35:06.899Z,96584
2022-11-01T09:36:06.885Z,96584
2022-11-01T09:37:07.302Z,96578
2022-11-01T09:38:06.919Z,96584
2022-11-01T09:39:06.953Z,96582
2022-11-01T09:40:06.920Z,96584
2022-11-01T09:41:06.908Z,96585
2022-11-01T09:42:06.950Z,96583
2022-11-01T09:43:07.351Z,96586
2022-11-01T09:44:06.973Z,96588
2022-11-01T09:45:06.925Z,96588
2022-11-01T09:46:06.924Z,96584
2022-11-01T09:47:06.968Z,96583
2022-11-01T09:48:06.957Z,96586
2022-11-01T09:49:07.003Z,96587
2022-11-01T09:50:06.948Z,96590
2022-11-01T09:51:06.952Z,96590
2022-11-01T09:52:06.970Z,96589
2022-11-01T09:53:06.941Z,96591
2022-11-01T09:54:07.001Z,96584
2022-11-01T09:56:06.994Z,96587
2022-11-01T09:57:06.999Z,96584
2022-11-01T09:58:06.962Z,96592
2022-11-01T09:59:06.997Z,96592
2022-11-01T10:03:07.087Z,96592
2022-11-01T10:04:06.965Z,96593
2022-11-01T10:05:06.998Z,96593
2022-11-01T10:06:06.987Z,96593
2022-11-01T10:07:07.012Z,96596
2022-11-01T10:08:11.151Z,96593
2022-11-01T10:09:06.979Z,96592
2022-11-01T10:10:07.014Z,96593
2022-11-01T10:11:08.418Z,96594
2022-11-01T10:12:07.055Z,96591
2022-11-01T10:13:07.020Z,96597
2022-11-01T10:14:07.037Z,96600
2022-11-01T10:15:07.064Z,96604
2022-11-01T10:16:07.026Z,96605
2022-11-01T10:17:07.035Z,96609
2022-11-01T10:18:07.442Z,96613
2022-11-01T10:19:07.018Z,96613
2022-11-01T10:21:07.052Z,96610
2022-11-01T10:22:07.067Z,96615
2022-11-01T10:23:07.034Z,96608
2022-11-01T10:24:07.069Z,96610
2022-11-01T10:25:07.133Z,96603
2022-11-01T10:26:07.044Z,96603
2022-11-01T10:27:07.085Z,96608
2022-11-01T10:28:07.057Z,96607
2022-11-01T10:29:07.058Z,96615
2022-11-01T10:30:07.086Z,96611
2022-11-01T10:31:07.093Z,96606
2022-11-01T10:32:07.065Z,96612
2022-11-01T10:34:07.076Z,96613
2022-11-01T10:35:07.096Z,96614
2022-11-01T10:36:07.054Z,96618
2022-11-01T10:37:07.124Z,96611
2022-11-01T10:38:23.964Z,96611
2022-11-01T10:39:53.122Z,96613
2022-11-01T10:40:09.720Z,96612
2022-11-01T10:41:07.075Z,96612
2022-11-01T10:42:07.111Z,96622
2022-11-01T10:44:07.127Z,96618
2022-11-01T10:45:11.388Z,96618
2022-11-01T10:46:07.095Z,96619
2022-11-01T10:47:07.116Z,96619
2022-11-01T10:48:07.104Z,96609
2022-11-01T10:49:07.091Z,96614
2022-11-01T10:50:07.796Z,96613
2022-11-01T10:51:07.090Z,96614
2022-11-01T10:52:07.101Z,96614
2022-11-01T10:53:07.182Z,96616
2022-11-01T10:54:07.106Z,96609
2022-11-01T10:55:07.194Z,96603
2022-11-01T10:58:07.148Z,96605
2022-11-01T10:59:07.150Z,96610
2022-11-01T11:00:07.133Z,96606
2022-11-01T11:01:07.292Z,96606
2022-11-01T11:02:07.269Z,96605
2022-11-01T11:03:07.163Z,96601
2022-11-01T11:04:07.122Z,96601
2022-11-01T11:05:07.153Z,96599
2022-11-01T11:06:07.247Z,96596
2022-11-01T11:07:07.144Z,96599
2022-11-01T11:08:07.122Z,96599
2022-11-01T11:09:07.125Z,96600
2022-11-01T11:10:07.161Z,96592
2022-11-01T11:11:07.186Z,96591
2022-11-01T11:12:07.181Z,96593
2022-11-01T11:13:07.347Z,96589
2022-11-01T11:14:07.184Z,96594
2022-11-01T11:15:07.152Z,96593
2022-11-01T11:16:07.181Z,96588
2022-11-01T11:17:07.139Z,96588
2022-11-01T11:18:07.227Z,96589
2022-11-01T11:19:07.162Z,96589
2022-11-01T11:20:07.177Z,96583
2022-11-01T11:21:07.198Z,96587
2022-11-01T11:22:11.630Z,96590
2022-11-01T11:23:07.176Z,96590
2022-11-01T11:24:07.229Z,96586
2022-11-01T11:26:07.216Z,96586
2022-11-01T11:27:07.188Z,96585
2022-11-01T11:29:07.241Z,96592
2022-11-01T11:30:07.229Z,96591
2022-11-01T11:31:07.236Z,96597
2022-11-01T11:33:07.209Z,96596
2022-11-01T11:34:07.264Z,96601
2022-11-01T11:37:07.260Z,96596
2022-11-01T11:38:07.539Z,96594
2022-11-01T11:39:07.275Z,96593
2022-11-01T11:40:07.217Z,96593
2022-11-01T11:41:07.227Z,96590
2022-11-01T11:42:07.246Z,96592
2022-11-01T11:43:07.304Z,96592
2022-11-01T11:44:07.273Z,96600
2022-11-01T11:45:07.243Z,96599
2022-11-01T11:46:07.240Z,96595
2022-11-01T11:48:07.253Z,96590
2022-11-01T11:49:07.557Z,96594
2022-11-01T11:50:07.257Z,96594
2022-11-01T11:51:07.255Z,96592
2022-11-01T11:52:07.302Z,96590
2022-11-01T11:53:07.245Z,96590
2022-11-01T11:54:07.245Z,96585
2022-11-01T11:55:07.351Z,96583
2022-11-01T11:56:07.285Z,96585
2022-11-01T11:57:07.302Z,96585
2022-11-01T11:58:07.270Z,96588
2022-11-01T12:00:07.305Z,96589
2022-11-01T12:01:07.425Z,96589
2022-11-01T12:02:09.704Z,96585
2022-11-01T12:03:07.569Z,96579
2022-11-01T12:04:07.272Z,96579
2022-11-01T12:05:07.315Z,96580
2022-11-01T12:06:07.274Z,96580
2022-11-01T12:07:07.354Z,96577
2022-11-01T12:08:07.285Z,96577
2022-11-01T12:09:07.299Z,96577
2022-11-01T12:10:07.319Z,96581
2022-11-01T12:11:07.302Z,96581
2022-11-01T12:12:07.339Z,96575
2022-11-01T12:13:07.352Z,96577
2022-11-01T12:14:07.295Z,96580
2022-11-01T12:15:07.388Z,96578
2022-11-01T12:16:07.351Z,96576
2022-11-01T12:17:07.390Z,96578
2022-11-01T12:18:11.427Z,96578
2022-11-01T12:19:07.361Z,96581
2022-11-01T12:21:07.335Z,96578
2022-11-01T12:22:07.368Z,96580
2022-11-01T12:23:07.322Z,96579
2022-11-01T12:24:07.328Z,96579
2022-11-01T12:25:07.415Z,96581
2022-11-01T12:26:09.324Z,96586
2022-11-01T12:27:07.357Z,96578
2022-11-01T12:28:07.432Z,96578
2022-11-01T12:29:07.337Z,96584
2022-11-01T12:30:07.368Z,96584
2022-11-01T12:31:07.397Z,96583
2022-11-01T12:32:07.331Z,96583
2022-11-01T12:33:07.409Z,96586
2022-11-01T12:34:07.351Z,96587
2022-11-01T12:35:07.399Z,96586
2022-11-01T12:36:12.098Z,96585
2022-11-01T12:37:07.376Z,96585
2022-11-01T12:38:07.405Z,96585
2022-11-01T12:39:07.359Z,96586
2022-11-01T12:40:07.408Z,96584
2022-11-01T12:41:07.397Z,96577
2022-11-01T12:42:07.526Z,96578
2022-11-01T12:43:07.423Z,96576
2022-11-01T12:44:07.357Z,96576
2022-11-01T12:45:07.424Z,96571
2022-11-01T12:46:07.397Z,96573
2022-11-01T12:47:07.424Z,96562
2022-11-01T12:48:07.463Z,96563
2022-11-01T12:49:07.429Z,96563
2022-11-01T12:50:07.444Z,96564
2022-11-01T12:51:07.417Z,96566
2022-11-01T12:53:07.463Z,96567
2022-11-01T12:54:07.455Z,96564
2022-11-01T12:55:07.443Z,96565
2022-11-01T12:56:07.427Z,96566
2022-11-01T12:57:07.401Z,96566
2022-11-01T12:58:09.284Z,96566
2022-11-01T12:59:07.427Z,96560
2022-11-01T13:00:07.465Z,96561
2022-11-01T13:01:07.512Z,96561
2022-11-01T13:02:07.579Z,96564
2022-11-01T13:03:07.484Z,96563
2022-11-01T13:04:07.458Z,96566
2022-11-01T13:06:07.460Z,96561
2022-11-01T13:07:07.443Z,96561
2022-11-01T13:10:07.478Z,96558
2022-11-01T13:11:07.446Z,96558
2022-11-01T13:12:07.491Z,96561
2022-11-01T13:13:12.334Z,96565
2022-11-01T13:14:07.475Z,96570
2022-11-01T13:15:07.517Z,96569
2022-11-01T13:17:07.457Z,96566
2022-11-01T13:19:07.506Z,96567
2022-11-01T13:20:07.533Z,96565
2022-11-01T13:21:07.486Z,96565
2022-11-01T13:22:07.506Z,96563
2022-11-01T13:23:07.503Z,96560
2022-11-01T13:24:07.480Z,96560
2022-11-01T13:25:07.545Z,96559
2022-11-01T13:26:07.483Z,96559
2022-11-01T13:27:07.511Z,96553
2022-11-01T13:28:07.561Z,96555
2022-11-01T13:29:07.543Z,96549
2022-11-01T13:30:07.488Z,96549
2022-11-01T13:31:07.543Z,96551
2022-11-01T13:33:07.546Z,96547
2022-11-01T13:34:07.507Z,96547
2022-11-01T13:35:07.524Z,96544
2022-11-01T13:36:07.611Z,96548
2022-11-01T13:37:07.542Z,96548
2022-11-01T13:39:07.539Z,96543
2022-11-01T13:40:07.529Z,96545
2022-11-01T13:41:07.563Z,96551
2022-11-01T13:42:07.595Z,96551
2022-11-01T13:43:07.567Z,96544
2022-11-01T13:44:07.529Z,96544
2022-11-01T13:45:07.567Z,96550
2022-11-01T13:46:07.566Z,96546
2022-11-01T13:47:07.532Z,96550
2022-11-01T13:48:07.626Z,96545
2022-11-01T13:49:07.544Z,96545
2022-11-01T13:50:12.512Z,96548
2022-11-01T13:51:07.576Z,96551
2022-11-01T13:52:07.549Z,96548
2022-11-01T13:53:07.554Z,96548
2022-11-01T13:54:07.792Z,96548
2022-11-01T13:55:07.566Z,96546
2022-11-01T13:56:07.592Z,96546
2022-11-01T13:57:07.593Z,96548
2022-11-01T13:58:07.605Z,96549
2022-11-01T13:59:07.584Z,96554
2022-11-01T14:00:07.590Z,96554
2022-11-01T14:01:07.687Z,96549
2022-11-01T14:02:07.644Z,96549
2022-11-01T14:03:07.619Z,96544
2022-11-01T14:04:07.591Z,96544
2022-11-01T14:05:07.676Z,96547
2022-11-01T14:06:07.626Z,96548
2022-11-01T14:07:07.600Z,96553
2022-11-01T14:08:07.599Z,96548
2022-11-01T14:09:07.609Z,96550
2022-11-01T14:10:07.625Z,96554
2022-11-01T14:11:07.754Z,96554
2022-11-01T14:12:07.600Z,96554
2022-11-01T14:13:07.622Z,96555
2022-11-01T14:14:07.655Z,96553
2022-11-01T14:15:07.621Z,96553
2022-11-01T14:16:07.656Z,96553
2022-11-01T14:17:07.631Z,96551
2022-11-01T14:18:07.639Z,96556
2022-11-01T14:19:07.677Z,96551
2022-11-01T14:20:07.636Z,96551
2022-11-01T14:21:07.664Z,96556
2022-11-01T14:22:07.627Z,96556
2022-11-01T14:23:07.684Z,96555
2022-11-01T14:24:07.662Z,96554
2022-11-01T14:25:07.759Z,96554
2022-11-01T14:26:07.646Z,96554
2022-11-01T14:27:12.660Z,96555
2022-11-01T14:28:07.826Z,96555
2022-11-01T14:29:07.737Z,96550
2022-11-01T14:30:07.636Z,96550
2022-11-01T14:31:07.661Z,96554
2022-11-01T14:32:07.687Z,96550
2022-11-01T14:33:07.669Z,96559
2022-11-01T14:34:07.666Z,96559
2022-11-01T14:36:07.721Z,96555
2022-11-01T14:37:07.698Z,96559
2022-11-01T14:38:07.687Z,96559